Time;durP1;ratioP1;P1;durP2;ratioP2;P2;SDS_P1;SDS_P2;PMS_P1;PMS_P2;Temp;Humidity;BMP_temperature;BMP_pressure;BME280_temperature;BME280_humidity;BME280_pressure;Samples;Min_cycle;Max_cycle;Signal;HPM_P1;HPM_P2
2023/08/19 00:00:49;;;;;;;13.55;8.45;;;;;;;21.27;100.00;97530.91;5031003;28;20025;-80
2023/08/19 00:03:15;;;;;;;16.25;8.70;;;;;;;21.23;100.00;97526.78;5047424;28;20401;-80
2023/08/19 00:05:40;;;;;;;12.88;8.75;;;;;;;21.21;100.00;97521.53;5035032;28;20026;-80
2023/08/19 00:08:05;;;;;;;13.82;8.48;;;;;;;21.24;100.00;97529.38;5028476;28;20025;-79
2023/08/19 00:10:31;;;;;;;13.18;8.85;;;;;;;21.16;100.00;97520.31;5027700;28;20057;-80
2023/08/19 00:12:56;;;;;;;14.05;7.88;;;;;;;21.00;100.00;97510.16;5027507;28;20404;-80
2023/08/19 00:15:22;;;;;;;15.38;8.48;;;;;;;21.03;100.00;97518.84;5028264;28;20508;-81
2023/08/19 00:17:48;;;;;;;16.77;8.68;;;;;;;21.03;100.00;97516.13;5027680;28;20025;-80
2023/08/19 00:20:13;;;;;;;12.30;8.55;;;;;;;20.99;100.00;97508.44;5036679;28;20112;-80
2023/08/19 00:22:39;;;;;;;11.35;8.32;;;;;;;20.95;100.00;97505.19;5048441;28;20024;-80
2023/08/19 00:25:05;;;;;;;16.33;9.23;;;;;;;20.87;100.00;97502.44;5038633;28;20036;-79
2023/08/19 00:27:31;;;;;;;15.13;8.38;;;;;;;20.98;100.00;97504.00;5028665;28;20078;-80
2023/08/19 00:29:56;;;;;;;12.25;8.93;;;;;;;21.00;100.00;97502.84;5027176;28;20496;-80
2023/08/19 00:32:22;;;;;;;19.52;9.07;;;;;;;20.99;100.00;97495.69;5046041;28;20060;-80
2023/08/19 00:34:47;;;;;;;15.27;8.65;;;;;;;21.00;100.00;97508.28;5027352;28;20024;-81
2023/08/19 00:37:13;;;;;;;15.98;8.93;;;;;;;20.98;100.00;97510.31;5026773;28;20036;-79
2023/08/19 00:39:38;;;;;;;14.85;9.10;;;;;;;20.91;100.00;97505.69;5026815;28;20021;-79
2023/08/19 00:42:06;;;;;;;11.20;8.65;;;;;;;20.93;100.00;97500.94;5038107;28;20040;-80
2023/08/19 00:44:34;;;;;;;16.13;9.00;;;;;;;20.87;100.00;97502.44;5010478;28;20021;-80
2023/08/19 00:47:01;;;;;;;14.98;8.88;;;;;;;20.77;100.00;97507.09;5027217;28;20036;-79
2023/08/19 00:49:28;;;;;;;17.10;9.55;;;;;;;20.85;100.00;97514.47;5026881;28;20480;-79
2023/08/19 00:51:54;;;;;;;20.27;9.02;;;;;;;20.76;100.00;97512.72;5026910;28;20469;-80
2023/08/19 00:54:19;;;;;;;16.60;8.68;;;;;;;20.75;100.00;97509.16;5027980;28;20025;-79
2023/08/19 00:56:45;;;;;;;15.55;8.35;;;;;;;20.69;100.00;97509.78;5031558;28;20103;-80
2023/08/19 00:59:11;;;;;;;11.70;9.10;;;;;;;20.62;100.00;97508.69;5046610;28;20400;-81
2023/08/19 01:01:37;;;;;;;15.32;9.25;;;;;;;20.54;100.00;97516.81;5040089;28;20021;-80
2023/08/19 01:04:03;;;;;;;16.55;8.98;;;;;;;20.53;100.00;97504.22;5022026;28;20040;-81
2023/08/19 01:06:49;;;;;;;13.40;9.60;;;;;;;20.44;100.00;97510.59;5035143;28;20480;-80
2023/08/19 01:09:22;;;;;;;13.35;9.13;;;;;;;20.41;100.00;97508.19;5010397;28;20500;-80
2023/08/19 01:11:57;;;;;;;18.60;9.50;;;;;;;20.39;100.00;97511.06;5010106;28;20029;-81
2023/08/19 01:14:32;;;;;;;15.23;9.60;;;;;;;20.40;100.00;97517.34;5034853;28;20036;-79
2023/08/19 01:17:03;;;;;;;14.07;9.82;;;;;;;20.35;100.00;97516.97;5026574;28;20040;-79
2023/08/19 01:19:30;;;;;;;17.92;9.50;;;;;;;20.35;100.00;97511.53;5026408;28;20026;-80
2023/08/19 01:22:04;;;;;;;22.67;11.18;;;;;;;20.36;100.00;97514.09;5035272;28;20031;-82
2023/08/19 01:24:42;;;;;;;12.98;9.38;;;;;;;20.20;100.00;97513.91;5049785;28;20025;-80
2023/08/19 01:27:24;;;;;;;14.20;9.43;;;;;;;20.22;100.00;97511.91;5049949;28;20037;-80
2023/08/19 01:29:51;;;;;;;16.70;9.43;;;;;;;20.25;100.00;97511.56;5044292;28;20372;-80
2023/08/19 01:32:16;;;;;;;12.23;9.48;;;;;;;20.20;100.00;97507.63;5029785;28;20036;-80
2023/08/19 01:34:42;;;;;;;17.25;9.75;;;;;;;20.12;100.00;97502.13;5029762;28;20025;-81
2023/08/19 01:37:11;;;;;;;16.38;10.30;;;;;;;20.14;100.00;97510.97;5029943;28;20030;-81
2023/08/19 01:39:38;;;;;;;12.00;9.48;;;;;;;20.11;100.00;97497.69;5029493;28;20653;-80
2023/08/19 01:42:04;;;;;;;12.25;9.52;;;;;;;20.10;100.00;97499.56;5045481;28;20020;-80
2023/08/19 01:44:31;;;;;;;15.15;10.50;;;;;;;20.03;100.00;97502.03;5049491;28;20448;-80
2023/08/19 01:46:56;;;;;;;11.77;9.45;;;;;;;20.08;100.00;97498.00;5032834;28;20112;-81
2023/08/19 01:49:22;;;;;;;21.70;10.32;;;;;;;20.01;100.00;97500.50;5032936;28;20159;-80
2023/08/19 01:51:48;;;;;;;20.38;10.25;;;;;;;19.97;100.00;97493.66;5022890;28;20490;-80
2023/08/19 01:54:14;;;;;;;18.35;10.40;;;;;;;19.95;100.00;97493.81;5029790;28;20025;-80
2023/08/19 01:56:40;;;;;;;17.40;10.27;;;;;;;19.84;100.00;97485.88;5030799;28;20025;-80
2023/08/19 01:59:05;;;;;;;14.18;10.60;;;;;;;19.86;100.00;97500.19;5036570;28;20029;-81
2023/08/19 02:01:30;;;;;;;19.20;10.32;;;;;;;19.83;100.00;97497.75;5032417;28;20411;-80
2023/08/19 02:03:56;;;;;;;14.30;8.88;;;;;;;19.76;100.00;97493.94;5050577;28;20035;-80
2023/08/19 02:06:21;;;;;;;19.40;10.48;;;;;;;19.77;100.00;97509.25;5040291;28;20078;-81
2023/08/19 02:08:47;;;;;;;15.30;9.18;;;;;;;19.87;100.00;97504.56;5029238;28;20059;-81
2023/08/19 02:11:12;;;;;;;26.88;10.32;;;;;;;19.77;100.00;97501.09;5029311;28;20033;-80
2023/08/19 02:13:38;;;;;;;19.90;9.45;;;;;;;19.78;100.00;97502.78;5047052;28;20029;-81
2023/08/19 02:16:04;;;;;;;14.73;9.65;;;;;;;19.74;100.00;97504.13;5049294;28;20028;-80
2023/08/19 02:18:29;;;;;;;16.70;9.40;;;;;;;19.73;100.00;97498.81;5032087;28;20030;-80
2023/08/19 02:20:55;;;;;;;16.20;10.07;;;;;;;19.74;100.00;97503.25;5030495;28;20500;-81
2023/08/19 02:23:20;;;;;;;19.33;9.63;;;;;;;19.79;100.00;97503.63;5028970;28;20109;-81
2023/08/19 02:25:46;;;;;;;16.58;10.20;;;;;;;19.77;100.00;97497.53;5040610;28;20469;-81
2023/08/19 02:28:11;;;;;;;22.88;10.40;;;;;;;19.71;100.00;97504.41;5050238;28;20013;-81
2023/08/19 02:30:36;;;;;;;27.00;11.05;;;;;;;19.72;100.00;97497.13;5031164;28;20045;-81
2023/08/19 02:33:08;;;;;;;28.65;10.57;;;;;;;19.61;100.00;97505.47;5029034;28;20128;-80
2023/08/19 02:35:34;;;;;;;23.48;11.25;;;;;;;19.64;100.00;97506.03;5030517;28;20021;-80
2023/08/19 02:37:59;;;;;;;25.48;10.98;;;;;;;19.56;100.00;97519.50;5050294;28;20028;-81
2023/08/19 02:40:25;;;;;;;28.58;11.00;;;;;;;19.53;100.00;97514.38;5048970;28;20024;-81
2023/08/19 02:42:50;;;;;;;18.17;10.18;;;;;;;19.58;100.00;97525.63;5032203;28;20025;-81
2023/08/19 02:45:16;;;;;;;26.63;11.20;;;;;;;19.51;100.00;97520.94;5029206;28;20104;-81
2023/08/19 02:47:41;;;;;;;14.73;10.20;;;;;;;19.56;100.00;97527.66;5047385;28;20024;-81
2023/08/19 02:50:07;;;;;;;15.60;10.48;;;;;;;19.58;100.00;97527.50;5049750;28;20021;-81
2023/08/19 02:52:33;;;;;;;15.95;10.45;;;;;;;19.60;100.00;97529.03;5032682;28;20381;-81
2023/08/19 02:54:58;;;;;;;16.92;10.82;;;;;;;19.55;100.00;97525.94;5029909;28;20018;-81
2023/08/19 02:57:24;;;;;;;14.15;10.95;;;;;;;19.53;100.00;97525.25;5039673;28;20182;-81
2023/08/19 02:59:49;;;;;;;20.95;10.90;;;;;;;19.55;100.00;97525.06;5029672;28;20013;-81
2023/08/19 03:02:15;;;;;;;16.45;11.38;;;;;;;19.46;100.00;97529.56;5028530;28;20033;-81
2023/08/19 03:04:40;;;;;;;17.13;10.95;;;;;;;19.39;100.00;97523.88;5045352;28;20031;-80
2023/08/19 03:07:06;;;;;;;15.38;12.18;;;;;;;19.40;100.00;97524.72;5044650;28;20033;-81
2023/08/19 03:09:32;;;;;;;18.02;12.35;;;;;;;19.32;100.00;97516.44;5035707;28;20025;-81
2023/08/19 03:11:57;;;;;;;15.25;11.77;;;;;;;19.35;100.00;97521.56;5048505;28;20495;-81
2023/08/19 03:14:23;;;;;;;21.65;13.30;;;;;;;19.29;100.00;97530.28;5048298;28;20024;-79
2023/08/19 03:16:49;;;;;;;24.95;14.68;;;;;;;19.08;100.00;97535.09;5049182;28;20029;-81
2023/08/19 03:19:15;;;;;;;33.05;15.90;;;;;;;18.98;100.00;97534.28;5049406;28;20085;-80
2023/08/19 03:21:41;;;;;;;27.85;14.20;;;;;;;18.84;100.00;97527.47;5048360;28;20036;-80
2023/08/19 03:24:07;;;;;;;42.92;16.83;;;;;;;18.86;100.00;97531.75;5048277;28;20029;-80
2023/08/19 03:26:33;;;;;;;49.05;15.68;;;;;;;18.77;100.00;97531.75;5048414;28;20345;-80
2023/08/19 03:28:58;;;;;;;24.83;13.35;;;;;;;18.79;100.00;97538.78;5040944;28;20441;-80
2023/08/19 03:31:24;;;;;;;26.50;12.38;;;;;;;18.79;100.00;97546.91;5036943;28;20534;-81
2023/08/19 03:33:52;;;;;;;17.27;11.80;;;;;;;18.77;100.00;97548.88;5011577;28;20120;-80
2023/08/19 03:36:18;;;;;;;19.35;11.13;;;;;;;18.68;100.00;97552.47;5011542;28;20048;-80
2023/08/19 03:38:45;;;;;;;19.55;11.90;;;;;;;18.67;100.00;97553.44;5011571;28;20523;-81
2023/08/19 03:41:10;;;;;;;19.67;11.23;;;;;;;18.67;100.00;97548.03;5028932;28;20329;-81
2023/08/19 03:43:35;;;;;;;18.05;11.32;;;;;;;18.66;100.00;97549.06;5027405;28;20055;-81
2023/08/19 03:46:01;;;;;;;20.77;11.30;;;;;;;18.63;100.00;97553.91;5027742;28;20025;-80
2023/08/19 03:48:26;;;;;;;18.35;10.80;;;;;;;18.73;100.00;97561.03;5041355;28;20024;-78
2023/08/19 03:50:52;;;;;;;20.88;10.68;;;;;;;18.70;100.00;97561.28;5048762;28;20080;-79
2023/08/19 03:53:17;;;;;;;40.60;15.35;;;;;;;18.71;100.00;97568.44;5047534;28;20025;-80
2023/08/19 03:55:43;;;;;;;23.60;13.20;;;;;;;18.79;100.00;97557.75;5048960;28;20029;-80
2023/08/19 03:58:08;;;;;;;24.63;13.20;;;;;;;18.97;100.00;97559.69;5048544;28;20032;-80
2023/08/19 04:00:34;;;;;;;34.25;11.75;;;;;;;19.01;100.00;97561.13;5047441;28;20033;-81
2023/08/19 04:02:59;;;;;;;22.92;11.10;;;;;;;18.92;100.00;97544.72;5047400;28;20426;-80
2023/08/19 04:05:25;;;;;;;19.73;10.68;;;;;;;18.94;100.00;97558.13;5047597;28;20057;-81
2023/08/19 04:07:50;;;;;;;24.40;12.50;;;;;;;18.91;100.00;97556.56;5047554;28;20365;-81
2023/08/19 04:10:17;;;;;;;122.50;28.75;;;;;;;19.13;100.00;97565.34;5047293;28;20110;-80
2023/08/19 04:12:42;;;;;;;38.63;14.77;;;;;;;19.18;100.00;97563.91;5047445;28;20484;-81
2023/08/19 04:15:10;;;;;;;57.47;17.52;;;;;;;19.14;100.00;97558.91;5038931;28;20089;-82
2023/08/19 04:17:35;;;;;;;32.90;13.52;;;;;;;19.24;100.00;97557.88;5047559;28;20151;-82
2023/08/19 04:20:01;;;;;;;20.15;10.55;;;;;;;19.23;100.00;97563.44;5041766;28;20454;-78
2023/08/19 04:22:27;;;;;;;15.98;9.77;;;;;;;19.21;100.00;97565.47;5047649;28;20040;-81
2023/08/19 04:24:53;;;;;;;13.60;9.82;;;;;;;19.23;100.00;97560.72;5040574;28;20036;-81
2023/08/19 04:27:18;;;;;;;19.90;10.20;;;;;;;19.28;100.00;97569.31;5028397;28;20498;-82
2023/08/19 04:29:44;;;;;;;17.48;10.75;;;;;;;19.25;100.00;97564.16;5027152;28;20032;-81
2023/08/19 04:32:10;;;;;;;16.98;10.60;;;;;;;19.33;100.00;97566.97;5029927;28;20033;-80
2023/08/19 04:34:35;;;;;;;17.10;10.18;;;;;;;19.29;100.00;97571.84;5011195;28;20429;-82
2023/08/19 04:37:01;;;;;;;21.08;11.65;;;;;;;19.42;100.00;97577.84;5028543;28;20045;-81
2023/08/19 04:39:27;;;;;;;20.38;11.70;;;;;;;19.51;100.00;97567.06;5030941;28;20025;-82
2023/08/19 04:41:53;;;;;;;24.50;12.38;;;;;;;19.67;100.00;97581.72;5042797;28;20420;-81
2023/08/19 04:44:19;;;;;;;56.03;16.40;;;;;;;19.74;100.00;97573.84;5035383;28;20029;-82
2023/08/19 04:46:45;;;;;;;57.45;15.55;;;;;;;19.77;100.00;97582.53;5046965;28;20032;-81
2023/08/19 04:49:10;;;;;;;83.88;20.05;;;;;;;19.85;100.00;97585.34;5046456;28;20115;-80
2023/08/19 04:51:36;;;;;;;22.52;12.35;;;;;;;19.99;100.00;97601.09;5046957;28;20096;-77
2023/08/19 04:54:03;;;;;;;21.25;10.70;;;;;;;20.13;100.00;97590.75;5046843;28;20029;-77
2023/08/19 04:56:29;;;;;;;32.80;11.73;;;;;;;20.24;100.00;97591.38;5029880;28;20025;-77
2023/08/19 04:58:55;;;;;;;19.98;10.50;;;;;;;20.32;100.00;97593.34;5034007;28;20021;-78
2023/08/19 05:01:20;;;;;;;26.08;11.63;;;;;;;20.37;100.00;97602.75;5013946;28;20029;-81
2023/08/19 05:03:46;;;;;;;30.85;11.55;;;;;;;20.47;100.00;97608.13;5033963;28;20020;-81
2023/08/19 05:06:12;;;;;;;21.98;10.95;;;;;;;20.57;100.00;97613.47;5047991;28;20070;-81
2023/08/19 05:08:37;;;;;;;55.85;15.95;;;;;;;20.67;100.00;97615.13;5046445;28;20452;-81
2023/08/19 05:11:03;;;;;;;24.42;11.35;;;;;;;20.78;100.00;97606.72;5028062;28;20036;-82
2023/08/19 05:13:28;;;;;;;33.47;12.00;;;;;;;20.87;100.00;97615.78;5027852;28;20024;-82
2023/08/19 05:15:54;;;;;;;32.95;11.20;;;;;;;21.03;100.00;97616.78;5033302;28;20029;-82
2023/08/19 05:18:19;;;;;;;33.42;11.77;;;;;;;21.10;100.00;97613.47;5046348;28;20029;-80
2023/08/19 05:20:45;;;;;;;38.70;12.70;;;;;;;21.29;100.00;97616.81;5047756;28;20028;-80
2023/08/19 05:23:11;;;;;;;51.70;11.25;;;;;;;21.44;100.00;97600.78;5047495;28;20503;-80
2023/08/19 05:25:37;;;;;;;27.33;11.10;;;;;;;21.61;100.00;97621.63;5043816;28;20033;-81
2023/08/19 05:28:03;;;;;;;31.80;11.85;;;;;;;21.63;100.00;97611.41;5009742;28;20038;-81
2023/08/19 05:30:31;;;;;;;88.68;16.95;;;;;;;21.78;100.00;97608.94;5028533;28;20045;-81
2023/08/19 05:32:58;;;;;;;37.35;13.70;;;;;;;21.91;100.00;97603.91;5046132;28;20407;-81
2023/08/19 05:35:23;;;;;;;41.58;15.43;;;;;;;22.06;100.00;97611.28;5046007;28;20029;-82
2023/08/19 05:37:49;;;;;;;26.52;11.48;;;;;;;22.72;100.00;97606.88;5048305;28;20028;-82
2023/08/19 05:40:14;;;;;;;35.72;11.85;;;;;;;24.22;100.00;97596.88;5046335;28;20035;-82
2023/08/19 05:42:40;;;;;;;43.17;20.98;;;;;;;25.89;100.00;97579.41;5046228;28;20073;-82
2023/08/19 05:45:06;;;;;;;29.38;10.40;;;;;;;27.09;100.00;97575.13;5043134;28;20480;-82
2023/08/19 05:47:32;;;;;;;29.75;9.32;;;;;;;27.86;100.00;97574.03;5029946;28;20630;-82
2023/08/19 05:49:57;;;;;;;11.18;7.35;;;;;;;28.75;100.00;97571.25;5047362;28;20025;-82
2023/08/19 05:52:23;;;;;;;20.65;8.45;;;;;;;28.91;98.00;97585.50;5046305;28;20033;-82
2023/08/19 05:54:49;;;;;;;16.15;8.88;;;;;;;28.66;100.00;97584.38;5062370;28;20125;-81
2023/08/19 05:57:15;;;;;;;16.67;9.43;;;;;;;28.26;100.00;97596.25;5046103;28;20552;-82
2023/08/19 05:59:40;;;;;;;25.00;10.93;;;;;;;28.44;100.00;97597.41;5039711;28;20030;-81
2023/08/19 06:02:06;;;;;;;18.70;9.88;;;;;;;29.23;99.39;97592.09;5026034;28;20048;-80
2023/08/19 06:04:31;;;;;;;14.60;7.70;;;;;;;30.56;87.60;97575.97;5025865;28;20433;-81
2023/08/19 06:06:57;;;;;;;32.78;10.35;;;;;;;30.88;83.36;97576.00;5032868;28;20126;-81
2023/08/19 06:09:23;;;;;;;41.60;11.13;;;;;;;30.90;83.05;97574.69;5014757;28;20449;-81
2023/08/19 06:11:51;;;;;;;16.35;7.70;;;;;;;31.07;80.58;97583.34;5026618;28;20030;-81
2023/08/19 06:14:17;;;;;;;17.70;7.53;;;;;;;30.87;79.99;97582.59;5037545;28;20039;-80
2023/08/19 06:16:43;;;;;;;10.95;7.07;;;;;;;31.08;77.19;97576.72;5043158;28;20035;-82
2023/08/19 06:19:09;;;;;;;11.32;7.05;;;;;;;31.73;71.61;97574.50;5046485;28;20029;-82
2023/08/19 06:21:34;;;;;;;15.65;7.97;;;;;;;32.26;68.84;97575.66;5023258;28;20025;-81
2023/08/19 06:24:00;;;;;;;14.75;9.65;;;;;;;32.54;65.40;97577.88;5041204;28;20064;-83
2023/08/19 06:26:26;;;;;;;19.73;7.65;;;;;;;31.98;68.01;97584.47;5030396;28;20025;-81
2023/08/19 06:28:51;;;;;;;16.23;7.93;;;;;;;32.26;68.39;97586.75;5031498;28;20096;-80
2023/08/19 06:31:17;;;;;;;14.27;7.30;;;;;;;32.79;65.90;97589.72;5048780;28;20526;-79
2023/08/19 06:33:43;;;;;;;42.35;9.00;;;;;;;33.34;61.00;97595.94;5049615;28;20029;-79
2023/08/19 06:36:11;;;;;;;34.45;10.85;;;;;;;34.25;55.88;97587.09;5029068;28;20396;-78
2023/08/19 06:38:40;;;;;;;21.83;7.85;;;;;;;34.53;52.83;97589.09;5030440;28;20127;-79
2023/08/19 06:41:11;;;;;;;12.52;7.57;;;;;;;33.83;55.39;97588.31;5046202;28;20637;-79
2023/08/19 06:43:40;;;;;;;13.00;6.45;;;;;;;33.39;56.11;97596.06;5029373;28;20163;-79
2023/08/19 06:46:07;;;;;;;10.80;6.53;;;;;;;34.12;53.74;97584.56;5028921;28;20044;-80
2023/08/19 06:48:42;;;;;;;14.18;6.60;;;;;;;33.67;53.30;97578.75;5063001;28;20021;-78
2023/08/19 06:51:09;;;;;;;10.38;6.82;;;;;;;33.05;55.71;97581.00;5048467;28;20172;-77
2023/08/19 06:53:34;;;;;;;18.23;8.10;;;;;;;33.96;52.60;97582.53;5040604;28;20461;-83
2023/08/19 06:56:31;;;;;;;10.85;7.57;;;;;;;34.06;50.46;97582.72;5048440;28;20048;-82
2023/08/19 06:59:22;;;;;;;14.85;6.60;;;;;;;33.28;51.86;97591.34;5040052;28;20089;-80
2023/08/19 07:01:51;;;;;;;10.68;6.05;;;;;;;32.80;53.40;97591.38;5039039;28;20044;-80
2023/08/19 07:04:22;;;;;;;14.55;8.63;;;;;;;32.81;53.91;97583.91;5048504;28;20112;-80
2023/08/19 07:06:49;;;;;;;9.35;6.38;;;;;;;32.16;56.70;97591.97;5048439;28;20024;-80
2023/08/19 07:09:16;;;;;;;11.40;6.88;;;;;;;32.82;57.31;97593.94;5039436;28;20041;-80
2023/08/19 07:11:42;;;;;;;13.13;5.97;;;;;;;33.42;52.65;97597.50;5028459;28;20049;-81
2023/08/19 07:14:09;;;;;;;11.80;6.40;;;;;;;33.97;50.99;97592.50;5029369;28;20036;-78
2023/08/19 07:19:55;;;;;;;11.20;5.77;;;;;;;36.08;44.21;97583.94;5032487;28;20124;-78
2023/08/19 07:22:22;;;;;;;10.00;6.18;;;;;;;36.23;43.78;97578.59;5032068;28;20358;-77
2023/08/19 07:24:51;;;;;;;12.90;5.57;;;;;;;35.92;44.35;97573.63;5048262;28;20044;-78
2023/08/19 07:27:16;;;;;;;16.45;6.10;;;;;;;36.08;43.98;97579.22;5047932;28;20033;-77
2023/08/19 07:29:42;;;;;;;8.57;5.80;;;;;;;35.75;44.33;97582.84;5047725;28;20017;-77
2023/08/19 07:32:09;;;;;;;26.38;7.05;;;;;;;36.07;43.55;97579.47;5048828;28;20045;-77
2023/08/19 07:34:35;;;;;;;24.80;5.80;;;;;;;36.37;43.17;97577.09;5049042;28;20093;-77
2023/08/19 07:37:00;;;;;;;36.78;6.95;;;;;;;36.55;44.25;97579.59;5048032;28;20033;-77
2023/08/19 07:39:26;;;;;;;31.35;7.30;;;;;;;35.83;44.72;97584.38;5047434;28;20057;-78
2023/08/19 07:41:52;;;;;;;24.55;7.53;;;;;;;36.72;43.53;97577.59;5031306;28;20438;-79
2023/08/19 07:44:19;;;;;;;14.80;6.13;;;;;;;35.82;43.91;97566.81;5047898;28;20052;-79
2023/08/19 07:46:45;;;;;;;7.55;6.13;;;;;;;35.01;45.58;97567.28;5027905;28;20611;-78
2023/08/19 07:49:11;;;;;;;19.80;13.13;;;;;;;35.14;45.82;97580.06;5036091;28;20029;-79
2023/08/19 07:51:36;;;;;;;15.27;6.63;;;;;;;34.88;46.70;97581.50;5037003;28;20483;-78
2023/08/19 07:54:02;;;;;;;23.35;7.05;;;;;;;35.91;45.02;97578.34;5027839;28;20037;-81
2023/08/19 07:56:27;;;;;;;33.85;7.43;;;;;;;36.84;42.82;97581.06;5027450;28;20036;-81
2023/08/19 07:58:53;;;;;;;41.20;8.18;;;;;;;37.27;41.73;97573.75;5028819;28;20471;-81
2023/08/19 08:01:19;;;;;;;9.60;5.63;;;;;;;36.77;41.08;97582.38;5027507;28;20465;-80
2023/08/19 08:03:45;;;;;;;35.70;7.00;;;;;;;36.79;42.16;97580.19;5040144;28;20025;-81
2023/08/19 08:06:11;;;;;;;20.92;6.35;;;;;;;36.72;41.95;97573.94;5030815;28;20035;-81
2023/08/19 08:08:37;;;;;;;21.45;6.15;;;;;;;37.40;40.60;97581.69;5045257;28;20068;-81
2023/08/19 08:11:03;;;;;;;13.07;6.72;;;;;;;37.33;40.23;97579.13;5027695;28;20492;-81
2023/08/19 08:13:29;;;;;;;10.80;5.75;;;;;;;37.67;39.51;97588.09;5028398;28;20021;-80
2023/08/19 08:15:55;;;;;;;8.15;5.43;;;;;;;37.47;39.28;97576.78;5042362;28;20017;-80
2023/08/19 08:18:20;;;;;;;9.27;4.90;;;;;;;38.76;36.70;97571.50;5040970;28;20568;-81
2023/08/19 08:20:46;;;;;;;13.75;5.57;;;;;;;39.58;35.42;97578.16;5027278;28;20070;-81
2023/08/19 08:23:12;;;;;;;12.05;5.28;;;;;;;37.97;37.62;97570.75;5044085;28;20032;-81
2023/08/19 08:25:37;;;;;;;22.27;13.70;;;;;;;38.62;37.55;97575.06;5029188;28;20715;-81
2023/08/19 08:28:03;;;;;;;7.78;4.75;;;;;;;39.17;36.45;97566.88;5033772;28;20543;-81
2023/08/19 08:30:29;;;;;;;17.13;7.95;;;;;;;38.72;36.94;97555.53;5046521;28;20054;-81
2023/08/19 08:32:55;;;;;;;14.45;5.60;;;;;;;38.69;37.11;97562.50;5031367;28;20037;-82
2023/08/19 08:35:20;;;;;;;11.02;6.03;;;;;;;38.66;37.38;97559.41;5031953;28;20481;-80
2023/08/19 08:37:46;;;;;;;14.07;5.32;;;;;;;38.19;38.25;97559.44;5028107;28;20062;-81
2023/08/19 08:40:12;;;;;;;11.82;4.65;;;;;;;38.80;37.68;97561.44;5043493;28;20033;-74
2023/08/19 08:42:38;;;;;;;10.52;5.38;;;;;;;40.13;36.14;97561.34;5027946;28;20450;-73
2023/08/19 08:45:04;;;;;;;16.42;5.32;;;;;;;39.80;36.25;97559.97;5026839;28;20057;-72
2023/08/19 08:47:30;;;;;;;10.30;4.90;;;;;;;38.50;37.89;97572.50;5026594;28;20525;-73
2023/08/19 08:49:56;;;;;;;7.80;5.25;;;;;;;38.70;38.24;97569.75;5026705;28;20094;-73
2023/08/19 08:52:22;;;;;;;15.68;5.32;;;;;;;39.45;37.14;97579.53;5026658;28;20037;-73
2023/08/19 08:54:53;;;;;;;14.55;5.00;;;;;;;39.80;36.51;97567.53;5026468;28;20025;-73
2023/08/19 08:57:19;;;;;;;5.45;4.72;;;;;;;39.65;36.73;97568.34;5010821;28;20029;-72
2023/08/19 08:59:45;;;;;;;4.95;4.45;;;;;;;40.23;35.94;97564.13;5009790;28;20035;-72
2023/08/19 09:02:14;;;;;;;10.60;5.03;;;;;;;39.95;35.96;97561.91;5026782;28;20112;-74
2023/08/19 09:04:43;;;;;;;13.63;5.13;;;;;;;40.75;35.27;97566.50;5026452;28;20033;-73
2023/08/19 09:07:10;;;;;;;65.00;7.88;;;;;;;40.45;35.76;97572.19;5009907;28;20041;-73
2023/08/19 09:09:37;;;;;;;5.72;4.93;;;;;;;40.16;35.49;97563.56;5026322;28;20030;-73
2023/08/19 09:12:04;;;;;;;6.47;4.22;;;;;;;39.01;36.64;97562.34;5026557;28;20033;-73
2023/08/19 09:14:43;;;;;;;11.68;4.10;;;;;;;40.58;34.96;97568.78;5026440;28;20029;-73
2023/08/19 09:17:10;;;;;;;5.32;4.53;;;;;;;40.37;34.88;97556.78;5026526;28;20078;-73
2023/08/19 09:19:36;;;;;;;12.10;5.30;;;;;;;40.36;35.10;97560.69;5009492;28;20044;-73
2023/08/19 09:22:16;;;;;;;49.83;5.60;;;;;;;39.61;35.06;97561.63;5026255;28;20025;-72
2023/08/19 09:24:42;;;;;;;8.80;4.43;;;;;;;38.49;37.49;97554.03;5027126;28;20029;-73
2023/08/19 09:27:08;;;;;;;7.28;4.70;;;;;;;38.89;37.18;97547.75;5039546;28;20033;-72
2023/08/19 09:29:34;;;;;;;9.90;4.57;;;;;;;38.81;37.32;97543.56;5047098;28;20081;-73
2023/08/19 09:32:00;;;;;;;7.68;4.32;;;;;;;39.22;36.59;97540.84;5029406;28;20089;-73
2023/08/19 09:34:26;;;;;;;10.77;5.22;;;;;;;38.71;37.31;97542.63;5046196;28;20484;-73
2023/08/19 09:36:57;;;;;;;6.05;4.50;;;;;;;38.08;38.70;97540.94;5036555;28;20033;-73
2023/08/19 09:39:26;;;;;;;10.50;5.70;;;;;;;38.76;38.71;97543.53;5026132;28;20026;-73
2023/08/19 09:42:00;;;;;;;22.02;6.47;;;;;;;39.95;36.16;97539.47;5044355;27;20029;-73
2023/08/19 09:44:30;;;;;;;9.57;4.97;;;;;;;40.69;35.08;97545.19;5013336;28;20037;-73
2023/08/19 09:47:00;;;;;;;11.70;4.25;;;;;;;41.31;33.71;97538.13;5029611;28;20030;-73
2023/08/19 09:49:26;;;;;;;36.42;5.38;;;;;;;42.87;32.03;97528.13;5049128;28;20798;-73
2023/08/19 09:51:54;;;;;;;13.10;4.95;;;;;;;41.75;33.00;97533.25;5049365;28;20025;-74
2023/08/19 09:54:20;;;;;;;43.30;6.25;;;;;;;40.91;33.94;97530.75;5032739;28;20028;-73
2023/08/19 09:56:52;;;;;;;15.00;4.90;;;;;;;38.86;36.10;97535.16;5049200;28;20036;-73
2023/08/19 09:59:18;;;;;;;11.10;4.70;;;;;;;40.23;34.78;97527.66;5049039;28;20459;-73
2023/08/19 10:01:44;;;;;;;19.02;5.18;;;;;;;41.66;32.91;97535.03;5049334;28;20108;-74
2023/08/19 10:04:09;;;;;;;16.08;5.05;;;;;;;41.34;33.76;97534.72;5050160;28;20056;-73
2023/08/19 10:06:39;;;;;;;6.20;5.60;;;;;;;41.52;33.45;97532.06;5049150;28;20089;-73
2023/08/19 10:09:08;;;;;;;8.15;5.00;;;;;;;42.29;32.33;97529.41;5048932;28;20122;-73
2023/08/19 10:11:36;;;;;;;8.27;4.82;;;;;;;40.32;33.86;97517.53;5048819;28;20109;-73
2023/08/19 10:14:04;;;;;;;4.90;4.40;;;;;;;41.44;33.54;97534.69;5039355;28;20528;-73
2023/08/19 10:16:32;;;;;;;6.72;4.60;;;;;;;41.73;32.68;97529.06;5012453;28;20508;-74
2023/08/19 10:18:59;;;;;;;5.30;4.03;;;;;;;42.03;32.35;97511.91;5029270;28;20029;-73
2023/08/19 10:21:25;;;;;;;6.15;4.68;;;;;;;42.33;31.95;97520.06;5028827;28;20087;-73
2023/08/19 10:23:51;;;;;;;7.38;4.20;;;;;;;41.35;33.01;97519.59;5029086;28;20114;-73
2023/08/19 10:26:17;;;;;;;8.00;4.90;;;;;;;42.08;31.93;97517.50;5028814;28;20029;-73
2023/08/19 10:29:09;;;;;;;13.60;4.40;;;;;;;43.16;30.73;97511.94;5030112;28;20029;-73
2023/08/19 10:31:35;;;;;;;7.03;4.43;;;;;;;41.81;32.07;97520.84;5039556;28;20041;-72
2023/08/19 10:34:19;;;;;;;8.73;4.32;;;;;;;41.53;31.85;97516.88;5048681;28;20056;-73
2023/08/19 10:37:07;;;;;;;5.85;3.75;;;;;;;42.14;31.20;97510.69;5049618;28;20037;-73
2023/08/19 10:39:32;;;;;;;9.63;4.40;;;;;;;41.76;31.27;97494.75;5048380;28;20032;-73
2023/08/19 10:41:58;;;;;;;5.75;3.90;;;;;;;41.82;30.69;97500.06;5032214;28;20034;-74
2023/08/19 10:44:31;;;;;;;8.60;4.18;;;;;;;42.57;30.00;97497.53;5028625;28;20182;-74
2023/08/19 10:47:18;;;;;;;6.00;3.80;;;;;;;44.13;28.10;97509.16;5028746;28;20113;-74
2023/08/19 10:49:46;;;;;;;4.68;3.85;;;;;;;44.39;27.68;97501.06;5028481;28;20035;-74
2023/08/19 10:52:22;;;;;;;9.80;3.95;;;;;;;43.72;27.94;97496.94;5028221;28;20057;-74
2023/08/19 10:54:47;;;;;;;5.78;3.72;;;;;;;42.25;29.43;97489.78;5028626;28;20025;-74
2023/08/19 10:57:24;;;;;;;11.77;4.03;;;;;;;41.35;30.09;97495.09;5028422;28;20029;-74
2023/08/19 11:00:00;;;;;;;6.00;3.38;;;;;;;43.14;28.39;97496.47;5035714;28;20396;-73
2023/08/19 11:02:34;;;;;;;7.57;3.60;;;;;;;45.34;26.35;97487.97;5050038;28;20052;-73
2023/08/19 11:05:03;;;;;;;6.45;3.20;;;;;;;46.06;25.29;97480.16;5048569;28;20060;-73
2023/08/19 11:07:28;;;;;;;5.35;3.97;;;;;;;46.25;25.12;97475.09;5048085;28;20036;-74
2023/08/19 11:09:54;;;;;;;5.97;3.58;;;;;;;42.77;27.90;97468.28;5048127;28;20025;-73
2023/08/19 11:12:21;;;;;;;7.05;3.58;;;;;;;40.87;29.75;97481.94;5048235;28;20133;-73
2023/08/19 11:14:47;;;;;;;5.65;3.70;;;;;;;41.31;29.84;97482.78;5049099;28;20036;-72
2023/08/19 11:17:13;;;;;;;5.55;3.35;;;;;;;41.13;29.39;97477.88;5047983;28;20040;-73
2023/08/19 11:19:39;;;;;;;22.58;4.47;;;;;;;40.28;29.71;97470.72;5047660;28;20029;-73
2023/08/19 11:22:05;;;;;;;7.65;3.60;;;;;;;40.87;29.81;97465.94;5031361;28;20029;-73